Flight Track Log - Related Links

Times and Time Zones

All times are in EDT time to prevent confusion due to time zone crossing. See the N72CD flight status page for this flight to view local times or setup timezone preferences in your user account.

Time Position Orientation Groundspeed Altitude Reporting Facility
EDT Latitude Longitude Course Direction KTS MPH feet Rate Location/Type
Thu 07:59:06 PM 41.8000 -88.5667 270° West 120 138 2,200  Level Chicago TRACON
Thu 08:00:06 PM 41.8000 -88.6167 North 112 129 2,800 600 Climbing Chicago TRACON
Thu 08:07:32 PM 41.9781 -88.6067 334° Northwest  Level FlightAware Approximate
Thu 08:08:32 PM 42.0023 -88.6229 334° Northwest  Level FlightAware Approximate
Thu 08:09:32 PM 42.0264 -88.6391 334° Northwest  Level FlightAware Approximate
Thu 08:10:32 PM 42.0506 -88.6554 333° Northwest  Level FlightAware Approximate
Thu 08:11:32 PM 42.0748 -88.6716 333° Northwest  Level FlightAware Approximate
Thu 08:12:32 PM 42.0989 -88.6879 333° Northwest  Level FlightAware Approximate
Thu 08:13:32 PM 42.1231 -88.7041 350° North  Level FlightAware Approximate
Thu 08:14:32 PM 42.1478 -88.7101 333° Northwest  Level FlightAware Approximate
Thu 08:15:32 PM 42.1718 -88.7269 333° Northwest  Level FlightAware Approximate
Thu 08:16:32 PM 42.1958 -88.7436 333° Northwest  Level FlightAware Approximate
Thu 08:17:32 PM 42.2198 -88.7604 333° Northwest  Level FlightAware Approximate
Thu 08:18:32 PM 42.2437 -88.7772 333° Northwest  Level FlightAware Approximate
Thu 08:19:32 PM 42.2677 -88.7940 333° Northwest  Level FlightAware Approximate
Thu 08:20:32 PM 42.2917 -88.8108 333° Northwest  Level FlightAware Approximate
Thu 08:21:32 PM 42.3156 -88.8277 333° Northwest  Level FlightAware Approximate
Thu 08:22:32 PM 42.3396 -88.8445 333° Northwest  Level FlightAware Approximate
Thu 08:23:32 PM 42.3636 -88.8614 333° Northwest  Level FlightAware Approximate
Thu 08:24:32 PM 42.3875 -88.8782 333° Northwest  Level FlightAware Approximate
Thu 08:25:32 PM 42.4115 -88.8951 332° Northwest  Level FlightAware Approximate
Thu 08:26:32 PM 42.4354 -88.9120 332° Northwest  Level FlightAware Approximate
Thu 08:27:32 PM 42.4594 -88.9289 333° Northwest  Level FlightAware Approximate
Thu 08:28:32 PM 42.4835 -88.9453 332° Northwest  Level FlightAware Approximate
Thu 08:29:32 PM 42.5074 -88.9624 332° Northwest  Level FlightAware Approximate
Thu 08:30:32 PM 42.5313 -88.9795 332° Northwest  Level FlightAware Approximate
Thu 08:31:32 PM 42.5552 -88.9966 332° Northwest  Level FlightAware Approximate
Thu 08:32:32 PM 42.5791 -89.0136 338° Northwest  Level FlightAware Approximate
Thu 08:33:32 PM 42.6042 -89.0271 326° Northwest  Level FlightAware Approximate
Thu 08:34:32 PM 42.6267 -89.0474 134° Southeast  Level Estimated
Thu 08:35:32 PM 42.6167 -89.0333 301° West  Level FlightAware Approximate
Thu 08:36:32 PM 42.6304 -89.0649 121° Southeast  Level Estimated
Thu 08:37:32 PM 42.6167 -89.0333 301° West  Level FlightAware Approximate
Thu 08:38:32 PM 42.6304 -89.0649 121° Southeast  Level Estimated
Thu 08:39:32 PM 42.6167 -89.0333 301° West  Level FlightAware Approximate
Thu 08:40:32 PM 42.6304 -89.0649 301° West  Level Estimated

Login

Don't have an account? Register now (free) for customized features, flight alerts, and more!